sensor_id;sensor_type;location;lat;lon;timestamp;P1;durP1;ratioP1;P2;durP2;ratioP2
62788;SDS011;66401;42.016;21.454;2023-09-18T00:00:43;11.57;;;9.67;;
62788;SDS011;66401;42.016;21.454;2023-09-18T00:03:19;14.13;;;8.83;;
62788;SDS011;66401;42.016;21.454;2023-09-18T00:05:48;14.50;;;9.33;;
62788;SDS011;66401;42.016;21.454;2023-09-18T00:08:14;14.80;;;10.00;;
62788;SDS011;66401;42.016;21.454;2023-09-18T00:10:40;13.50;;;9.70;;
62788;SDS011;66401;42.016;21.454;2023-09-18T00:13:06;15.13;;;9.97;;
62788;SDS011;66401;42.016;21.454;2023-09-18T00:15:31;10.90;;;9.60;;
62788;SDS011;66401;42.016;21.454;2023-09-18T00:17:57;10.27;;;9.00;;
62788;SDS011;66401;42.016;21.454;2023-09-18T00:20:22;13.37;;;10.00;;
62788;SDS011;66401;42.016;21.454;2023-09-18T00:22:52;15.43;;;9.63;;
62788;SDS011;66401;42.016;21.454;2023-09-18T00:25:19;13.53;;;9.40;;
62788;SDS011;66401;42.016;21.454;2023-09-18T00:27:44;11.03;;;8.67;;
62788;SDS011;66401;42.016;21.454;2023-09-18T00:30:10;11.43;;;9.00;;
62788;SDS011;66401;42.016;21.454;2023-09-18T00:32:36;13.90;;;9.47;;
62788;SDS011;66401;42.016;21.454;2023-09-18T00:35:02;15.77;;;9.17;;
62788;SDS011;66401;42.016;21.454;2023-09-18T00:37:28;13.63;;;8.90;;
62788;SDS011;66401;42.016;21.454;2023-09-18T00:39:54;11.57;;;9.03;;
62788;SDS011;66401;42.016;21.454;2023-09-18T00:42:19;11.00;;;8.77;;
62788;SDS011;66401;42.016;21.454;2023-09-18T00:44:47;10.10;;;8.60;;
62788;SDS011;66401;42.016;21.454;2023-09-18T00:47:13;13.67;;;8.77;;
62788;SDS011;66401;42.016;21.454;2023-09-18T00:49:40;14.13;;;9.13;;
62788;SDS011;66401;42.016;21.454;2023-09-18T00:52:08;10.87;;;9.20;;
62788;SDS011;66401;42.016;21.454;2023-09-18T00:54:36;10.57;;;8.83;;
62788;SDS011;66401;42.016;21.454;2023-09-18T00:57:04;10.53;;;8.00;;
62788;SDS011;66401;42.016;21.454;2023-09-18T00:59:29;11.60;;;9.47;;
62788;SDS011;66401;42.016;21.454;2023-09-18T01:01:56;10.77;;;8.50;;
62788;SDS011;66401;42.016;21.454;2023-09-18T01:04:21;11.33;;;8.93;;
62788;SDS011;66401;42.016;21.454;2023-09-18T01:06:48;10.43;;;9.30;;
62788;SDS011;66401;42.016;21.454;2023-09-18T01:09:15;11.03;;;9.20;;
62788;SDS011;66401;42.016;21.454;2023-09-18T01:17:10;12.47;;;8.63;;
62788;SDS011;66401;42.016;21.454;2023-09-18T01:22:12;11.77;;;8.93;;
62788;SDS011;66401;42.016;21.454;2023-09-18T01:24:40;10.07;;;8.30;;
62788;SDS011;66401;42.016;21.454;2023-09-18T01:27:16;9.37;;;8.43;;
62788;SDS011;66401;42.016;21.454;2023-09-18T01:29:46;12.90;;;8.97;;
62788;SDS011;66401;42.016;21.454;2023-09-18T01:32:13;11.53;;;9.10;;
62788;SDS011;66401;42.016;21.454;2023-09-18T01:34:40;11.33;;;8.57;;
62788;SDS011;66401;42.016;21.454;2023-09-18T01:37:10;12.10;;;9.03;;
62788;SDS011;66401;42.016;21.454;2023-09-18T01:39:37;13.50;;;9.70;;
62788;SDS011;66401;42.016;21.454;2023-09-18T01:42:04;11.80;;;8.87;;
62788;SDS011;66401;42.016;21.454;2023-09-18T01:44:32;13.87;;;8.47;;
62788;SDS011;66401;42.016;21.454;2023-09-18T01:46:59;12.50;;;8.83;;
62788;SDS011;66401;42.016;21.454;2023-09-18T01:49:31;11.50;;;9.27;;
62788;SDS011;66401;42.016;21.454;2023-09-18T01:51:57;11.23;;;9.07;;
62788;SDS011;66401;42.016;21.454;2023-09-18T01:54:23;12.90;;;8.93;;
62788;SDS011;66401;42.016;21.454;2023-09-18T01:56:49;14.93;;;8.73;;
62788;SDS011;66401;42.016;21.454;2023-09-18T01:59:15;12.00;;;9.27;;
62788;SDS011;66401;42.016;21.454;2023-09-18T02:01:41;10.10;;;8.53;;
62788;SDS011;66401;42.016;21.454;2023-09-18T02:04:06;12.70;;;9.17;;
62788;SDS011;66401;42.016;21.454;2023-09-18T02:06:32;11.73;;;9.23;;
62788;SDS011;66401;42.016;21.454;2023-09-18T02:08:57;11.70;;;9.13;;
62788;SDS011;66401;42.016;21.454;2023-09-18T02:11:23;13.13;;;9.37;;
62788;SDS011;66401;42.016;21.454;2023-09-18T02:13:49;11.23;;;8.70;;
62788;SDS011;66401;42.016;21.454;2023-09-18T02:16:15;11.00;;;8.53;;
62788;SDS011;66401;42.016;21.454;2023-09-18T02:18:40;11.87;;;9.13;;
62788;SDS011;66401;42.016;21.454;2023-09-18T02:21:06;14.23;;;9.50;;
62788;SDS011;66401;42.016;21.454;2023-09-18T02:23:32;13.70;;;9.10;;
62788;SDS011;66401;42.016;21.454;2023-09-18T02:25:58;12.10;;;10.03;;
62788;SDS011;66401;42.016;21.454;2023-09-18T02:28:23;11.67;;;8.97;;
62788;SDS011;66401;42.016;21.454;2023-09-18T02:30:49;11.57;;;8.73;;
62788;SDS011;66401;42.016;21.454;2023-09-18T02:33:15;11.80;;;8.77;;
62788;SDS011;66401;42.016;21.454;2023-09-18T02:35:40;12.10;;;9.67;;
62788;SDS011;66401;42.016;21.454;2023-09-18T02:38:08;12.30;;;9.40;;
62788;SDS011;66401;42.016;21.454;2023-09-18T02:40:33;14.63;;;9.93;;
62788;SDS011;66401;42.016;21.454;2023-09-18T02:42:59;15.10;;;9.57;;
62788;SDS011;66401;42.016;21.454;2023-09-18T02:45:24;13.53;;;9.53;;
62788;SDS011;66401;42.016;21.454;2023-09-18T02:47:50;16.27;;;9.53;;
62788;SDS011;66401;42.016;21.454;2023-09-18T02:50:15;12.13;;;9.63;;
62788;SDS011;66401;42.016;21.454;2023-09-18T02:52:40;13.83;;;9.93;;
62788;SDS011;66401;42.016;21.454;2023-09-18T02:55:06;12.07;;;9.43;;
62788;SDS011;66401;42.016;21.454;2023-09-18T02:57:32;14.83;;;10.00;;
62788;SDS011;66401;42.016;21.454;2023-09-18T02:59:57;11.37;;;9.70;;
62788;SDS011;66401;42.016;21.454;2023-09-18T03:02:23;12.47;;;9.97;;
62788;SDS011;66401;42.016;21.454;2023-09-18T03:04:49;11.73;;;9.53;;
62788;SDS011;66401;42.016;21.454;2023-09-18T03:07:14;14.03;;;9.53;;
62788;SDS011;66401;42.016;21.454;2023-09-18T03:09:41;11.37;;;8.90;;
62788;SDS011;66401;42.016;21.454;2023-09-18T03:12:06;12.40;;;9.47;;
62788;SDS011;66401;42.016;21.454;2023-09-18T03:14:32;10.93;;;9.10;;
62788;SDS011;66401;42.016;21.454;2023-09-18T03:16:57;13.13;;;9.53;;
62788;SDS011;66401;42.016;21.454;2023-09-18T03:19:23;14.27;;;9.43;;
62788;SDS011;66401;42.016;21.454;2023-09-18T03:21:49;12.73;;;9.27;;
62788;SDS011;66401;42.016;21.454;2023-09-18T03:24:15;14.27;;;10.57;;
62788;SDS011;66401;42.016;21.454;2023-09-18T03:26:40;12.23;;;8.90;;
62788;SDS011;66401;42.016;21.454;2023-09-18T03:29:06;11.63;;;8.93;;
62788;SDS011;66401;42.016;21.454;2023-09-18T03:31:31;14.10;;;10.23;;
62788;SDS011;66401;42.016;21.454;2023-09-18T03:33:57;12.93;;;9.53;;
62788;SDS011;66401;42.016;21.454;2023-09-18T03:36:22;13.00;;;9.17;;
62788;SDS011;66401;42.016;21.454;2023-09-18T03:38:51;11.87;;;9.57;;
62788;SDS011;66401;42.016;21.454;2023-09-18T03:41:16;13.67;;;9.90;;
62788;SDS011;66401;42.016;21.454;2023-09-18T03:43:42;12.27;;;10.87;;
62788;SDS011;66401;42.016;21.454;2023-09-18T03:46:07;12.50;;;10.10;;
62788;SDS011;66401;42.016;21.454;2023-09-18T03:48:33;15.03;;;10.07;;
62788;SDS011;66401;42.016;21.454;2023-09-18T03:51:03;13.10;;;10.13;;
62788;SDS011;66401;42.016;21.454;2023-09-18T03:53:30;13.17;;;10.30;;
62788;SDS011;66401;42.016;21.454;2023-09-18T03:55:57;13.73;;;10.23;;
62788;SDS011;66401;42.016;21.454;2023-09-18T03:58:22;13.77;;;10.87;;
62788;SDS011;66401;42.016;21.454;2023-09-18T04:00:47;14.73;;;10.03;;
62788;SDS011;66401;42.016;21.454;2023-09-18T04:03:14;12.73;;;9.40;;
62788;SDS011;66401;42.016;21.454;2023-09-18T04:05:40;11.63;;;9.57;;
62788;SDS011;66401;42.016;21.454;2023-09-18T04:08:05;13.93;;;10.73;;
62788;SDS011;66401;42.016;21.454;2023-09-18T04:10:30;11.90;;;9.83;;
62788;SDS011;66401;42.016;21.454;2023-09-18T04:12:56;12.30;;;10.07;;
62788;SDS011;66401;42.016;21.454;2023-09-18T04:15:22;14.80;;;9.73;;
62788;SDS011;66401;42.016;21.454;2023-09-18T04:17:48;13.43;;;9.50;;
62788;SDS011;66401;42.016;21.454;2023-09-18T04:20:13;12.90;;;9.77;;
62788;SDS011;66401;42.016;21.454;2023-09-18T04:22:42;11.57;;;9.90;;
62788;SDS011;66401;42.016;21.454;2023-09-18T04:25:09;13.50;;;9.80;;
62788;SDS011;66401;42.016;21.454;2023-09-18T04:27:34;13.77;;;10.20;;
62788;SDS011;66401;42.016;21.454;2023-09-18T04:30:00;13.43;;;10.17;;
62788;SDS011;66401;42.016;21.454;2023-09-18T04:32:27;10.10;;;9.07;;
62788;SDS011;66401;42.016;21.454;2023-09-18T04:34:52;13.57;;;9.73;;
62788;SDS011;66401;42.016;21.454;2023-09-18T04:37:18;13.10;;;9.87;;
62788;SDS011;66401;42.016;21.454;2023-09-18T04:39:43;13.87;;;10.87;;
62788;SDS011;66401;42.016;21.454;2023-09-18T04:42:09;14.13;;;10.33;;
62788;SDS011;66401;42.016;21.454;2023-09-18T04:44:35;18.13;;;9.03;;
62788;SDS011;66401;42.016;21.454;2023-09-18T04:47:01;15.17;;;10.03;;
62788;SDS011;66401;42.016;21.454;2023-09-18T04:49:26;15.13;;;9.90;;
62788;SDS011;66401;42.016;21.454;2023-09-18T04:51:53;15.00;;;10.50;;
62788;SDS011;66401;42.016;21.454;2023-09-18T04:54:18;15.23;;;9.87;;
62788;SDS011;66401;42.016;21.454;2023-09-18T04:56:44;14.77;;;10.00;;
62788;SDS011;66401;42.016;21.454;2023-09-18T04:59:10;16.43;;;10.37;;
62788;SDS011;66401;42.016;21.454;2023-09-18T05:01:36;14.87;;;9.70;;
62788;SDS011;66401;42.016;21.454;2023-09-18T05:04:01;13.90;;;10.77;;
62788;SDS011;66401;42.016;21.454;2023-09-18T05:06:27;15.10;;;10.50;;
62788;SDS011;66401;42.016;21.454;2023-09-18T05:08:53;16.07;;;11.23;;
62788;SDS011;66401;42.016;21.454;2023-09-18T05:11:19;13.97;;;10.73;;
62788;SDS011;66401;42.016;21.454;2023-09-18T05:13:44;14.43;;;10.10;;
62788;SDS011;66401;42.016;21.454;2023-09-18T05:16:11;17.50;;;10.33;;
62788;SDS011;66401;42.016;21.454;2023-09-18T05:18:36;13.47;;;10.47;;
62788;SDS011;66401;42.016;21.454;2023-09-18T05:21:03;16.10;;;10.07;;
62788;SDS011;66401;42.016;21.454;2023-09-18T05:23:30;14.57;;;10.30;;
62788;SDS011;66401;42.016;21.454;2023-09-18T05:25:55;20.97;;;10.97;;
62788;SDS011;66401;42.016;21.454;2023-09-18T05:28:21;17.97;;;11.60;;
62788;SDS011;66401;42.016;21.454;2023-09-18T05:30:46;27.20;;;12.13;;
62788;SDS011;66401;42.016;21.454;2023-09-18T05:33:12;22.70;;;11.93;;
62788;SDS011;66401;42.016;21.454;2023-09-18T05:35:42;24.77;;;11.53;;
62788;SDS011;66401;42.016;21.454;2023-09-18T05:38:09;19.07;;;11.80;;
62788;SDS011;66401;42.016;21.454;2023-09-18T05:40:36;20.40;;;11.77;;
62788;SDS011;66401;42.016;21.454;2023-09-18T05:43:01;20.90;;;11.87;;
62788;SDS011;66401;42.016;21.454;2023-09-18T05:45:27;20.27;;;11.53;;
62788;SDS011;66401;42.016;21.454;2023-09-18T05:47:54;16.83;;;11.83;;
62788;SDS011;66401;42.016;21.454;2023-09-18T05:50:26;16.43;;;13.07;;
62788;SDS011;66401;42.016;21.454;2023-09-18T05:52:54;14.90;;;11.50;;
62788;SDS011;66401;42.016;21.454;2023-09-18T05:55:19;24.00;;;15.30;;
62788;SDS011;66401;42.016;21.454;2023-09-18T05:57:45;20.77;;;13.47;;
62788;SDS011;66401;42.016;21.454;2023-09-18T06:00:11;24.33;;;14.10;;
62788;SDS011;66401;42.016;21.454;2023-09-18T06:02:38;23.33;;;14.03;;
62788;SDS011;66401;42.016;21.454;2023-09-18T06:05:05;22.47;;;14.67;;
62788;SDS011;66401;42.016;21.454;2023-09-18T06:07:31;22.27;;;14.87;;
62788;SDS011;66401;42.016;21.454;2023-09-18T06:09:57;18.80;;;13.63;;
62788;SDS011;66401;42.016;21.454;2023-09-18T06:12:23;18.63;;;13.17;;
62788;SDS011;66401;42.016;21.454;2023-09-18T06:14:49;21.57;;;13.87;;
62788;SDS011;66401;42.016;21.454;2023-09-18T06:17:15;20.70;;;13.43;;
62788;SDS011;66401;42.016;21.454;2023-09-18T06:19:42;21.97;;;14.67;;
62788;SDS011;66401;42.016;21.454;2023-09-18T06:22:08;22.90;;;13.50;;
62788;SDS011;66401;42.016;21.454;2023-09-18T06:24:34;20.60;;;14.10;;
62788;SDS011;66401;42.016;21.454;2023-09-18T06:26:59;21.03;;;13.40;;
62788;SDS011;66401;42.016;21.454;2023-09-18T06:29:25;21.57;;;14.07;;
62788;SDS011;66401;42.016;21.454;2023-09-18T06:31:50;26.33;;;14.90;;
62788;SDS011;66401;42.016;21.454;2023-09-18T06:34:16;24.73;;;13.90;;
62788;SDS011;66401;42.016;21.454;2023-09-18T06:36:42;27.10;;;15.93;;
62788;SDS011;66401;42.016;21.454;2023-09-18T06:39:07;31.47;;;15.40;;
62788;SDS011;66401;42.016;21.454;2023-09-18T06:41:33;28.97;;;16.60;;
62788;SDS011;66401;42.016;21.454;2023-09-18T06:43:59;38.60;;;17.47;;
62788;SDS011;66401;42.016;21.454;2023-09-18T06:46:28;28.33;;;15.60;;
62788;SDS011;66401;42.016;21.454;2023-09-18T06:48:56;29.93;;;16.40;;
62788;SDS011;66401;42.016;21.454;2023-09-18T06:51:28;30.00;;;15.77;;
62788;SDS011;66401;42.016;21.454;2023-09-18T06:53:54;28.90;;;16.97;;
62788;SDS011;66401;42.016;21.454;2023-09-18T06:56:20;30.63;;;17.27;;
62788;SDS011;66401;42.016;21.454;2023-09-18T06:58:45;31.73;;;17.23;;
62788;SDS011;66401;42.016;21.454;2023-09-18T07:01:13;32.43;;;16.50;;
62788;SDS011;66401;42.016;21.454;2023-09-18T07:03:40;22.87;;;15.00;;
62788;SDS011;66401;42.016;21.454;2023-09-18T07:06:05;24.63;;;13.33;;
62788;SDS011;66401;42.016;21.454;2023-09-18T07:08:31;20.20;;;14.53;;
62788;SDS011;66401;42.016;21.454;2023-09-18T07:10:57;24.67;;;15.13;;
62788;SDS011;66401;42.016;21.454;2023-09-18T07:13:23;19.33;;;12.93;;
62788;SDS011;66401;42.016;21.454;2023-09-18T07:15:48;24.50;;;14.33;;
62788;SDS011;66401;42.016;21.454;2023-09-18T07:18:14;20.23;;;12.63;;
62788;SDS011;66401;42.016;21.454;2023-09-18T07:20:45;16.87;;;11.20;;
62788;SDS011;66401;42.016;21.454;2023-09-18T07:23:11;20.70;;;12.43;;
62788;SDS011;66401;42.016;21.454;2023-09-18T07:25:36;16.10;;;12.10;;
62788;SDS011;66401;42.016;21.454;2023-09-18T07:28:08;19.53;;;13.37;;
62788;SDS011;66401;42.016;21.454;2023-09-18T07:30:33;24.80;;;12.17;;
62788;SDS011;66401;42.016;21.454;2023-09-18T07:32:59;22.60;;;13.97;;
62788;SDS011;66401;42.016;21.454;2023-09-18T07:35:25;16.93;;;10.10;;
62788;SDS011;66401;42.016;21.454;2023-09-18T07:37:51;19.77;;;10.97;;
62788;SDS011;66401;42.016;21.454;2023-09-18T07:40:17;14.63;;;11.47;;
62788;SDS011;66401;42.016;21.454;2023-09-18T07:42:42;16.17;;;10.63;;
62788;SDS011;66401;42.016;21.454;2023-09-18T07:45:11;15.10;;;11.50;;
62788;SDS011;66401;42.016;21.454;2023-09-18T07:47:37;17.23;;;11.67;;
62788;SDS011;66401;42.016;21.454;2023-09-18T07:50:02;19.23;;;11.37;;
62788;SDS011;66401;42.016;21.454;2023-09-18T07:52:28;15.70;;;10.70;;
62788;SDS011;66401;42.016;21.454;2023-09-18T07:54:55;17.50;;;11.10;;
62788;SDS011;66401;42.016;21.454;2023-09-18T07:57:21;13.10;;;10.60;;
62788;SDS011;66401;42.016;21.454;2023-09-18T07:59:48;13.37;;;10.60;;
62788;SDS011;66401;42.016;21.454;2023-09-18T08:02:13;14.33;;;11.27;;
62788;SDS011;66401;42.016;21.454;2023-09-18T08:04:39;14.50;;;10.47;;
62788;SDS011;66401;42.016;21.454;2023-09-18T08:07:05;12.73;;;10.17;;
62788;SDS011;66401;42.016;21.454;2023-09-18T08:09:33;16.97;;;11.20;;
62788;SDS011;66401;42.016;21.454;2023-09-18T08:12:05;15.13;;;10.40;;
62788;SDS011;66401;42.016;21.454;2023-09-18T08:14:31;16.93;;;11.27;;
62788;SDS011;66401;42.016;21.454;2023-09-18T08:17:00;15.90;;;10.67;;
62788;SDS011;66401;42.016;21.454;2023-09-18T08:19:26;13.23;;;11.27;;
62788;SDS011;66401;42.016;21.454;2023-09-18T08:21:54;15.53;;;11.07;;
62788;SDS011;66401;42.016;21.454;2023-09-18T08:24:24;14.47;;;11.07;;
62788;SDS011;66401;42.016;21.454;2023-09-18T08:26:52;20.23;;;11.23;;
62788;SDS011;66401;42.016;21.454;2023-09-18T08:29:17;16.30;;;11.07;;
62788;SDS011;66401;42.016;21.454;2023-09-18T08:31:43;16.23;;;10.47;;
62788;SDS011;66401;42.016;21.454;2023-09-18T08:34:09;14.83;;;10.93;;
62788;SDS011;66401;42.016;21.454;2023-09-18T08:36:34;15.47;;;11.97;;
62788;SDS011;66401;42.016;21.454;2023-09-18T08:39:00;11.57;;;10.13;;
62788;SDS011;66401;42.016;21.454;2023-09-18T08:41:27;15.00;;;10.87;;
62788;SDS011;66401;42.016;21.454;2023-09-18T08:43:56;14.80;;;11.03;;
62788;SDS011;66401;42.016;21.454;2023-09-18T08:46:25;13.63;;;11.20;;
62788;SDS011;66401;42.016;21.454;2023-09-18T08:48:52;15.20;;;10.67;;
62788;SDS011;66401;42.016;21.454;2023-09-18T08:51:19;15.00;;;10.83;;
62788;SDS011;66401;42.016;21.454;2023-09-18T08:53:46;19.63;;;11.47;;
62788;SDS011;66401;42.016;21.454;2023-09-18T08:56:12;14.30;;;11.23;;
62788;SDS011;66401;42.016;21.454;2023-09-18T08:58:39;12.43;;;10.30;;
62788;SDS011;66401;42.016;21.454;2023-09-18T09:01:07;18.63;;;11.73;;
62788;SDS011;66401;42.016;21.454;2023-09-18T09:03:42;16.73;;;11.03;;
62788;SDS011;66401;42.016;21.454;2023-09-18T09:06:10;15.43;;;10.37;;
62788;SDS011;66401;42.016;21.454;2023-09-18T09:08:37;20.63;;;11.47;;
62788;SDS011;66401;42.016;21.454;2023-09-18T09:11:03;15.17;;;10.67;;
62788;SDS011;66401;42.016;21.454;2023-09-18T09:13:29;18.30;;;10.97;;
62788;SDS011;66401;42.016;21.454;2023-09-18T09:15:55;13.27;;;10.00;;
62788;SDS011;66401;42.016;21.454;2023-09-18T09:18:23;14.53;;;11.17;;
62788;SDS011;66401;42.016;21.454;2023-09-18T09:20:56;15.67;;;10.77;;
62788;SDS011;66401;42.016;21.454;2023-09-18T09:23:24;14.13;;;11.13;;
62788;SDS011;66401;42.016;21.454;2023-09-18T09:25:54;14.47;;;10.30;;
62788;SDS011;66401;42.016;21.454;2023-09-18T09:28:37;12.13;;;10.37;;
62788;SDS011;66401;42.016;21.454;2023-09-18T09:31:02;14.00;;;10.77;;
62788;SDS011;66401;42.016;21.454;2023-09-18T09:33:28;14.27;;;10.57;;
62788;SDS011;66401;42.016;21.454;2023-09-18T09:35:54;12.10;;;10.47;;
62788;SDS011;66401;42.016;21.454;2023-09-18T09:38:22;16.93;;;11.90;;
62788;SDS011;66401;42.016;21.454;2023-09-18T09:40:54;13.33;;;10.10;;
62788;SDS011;66401;42.016;21.454;2023-09-18T09:43:19;15.47;;;10.80;;
62788;SDS011;66401;42.016;21.454;2023-09-18T09:45:46;12.80;;;10.80;;
62788;SDS011;66401;42.016;21.454;2023-09-18T09:48:11;14.47;;;9.87;;
62788;SDS011;66401;42.016;21.454;2023-09-18T09:50:44;12.63;;;9.63;;
62788;SDS011;66401;42.016;21.454;2023-09-18T09:53:11;9.87;;;8.87;;
62788;SDS011;66401;42.016;21.454;2023-09-18T09:55:38;12.70;;;10.00;;
62788;SDS011;66401;42.016;21.454;2023-09-18T09:58:04;11.83;;;9.53;;
62788;SDS011;66401;42.016;21.454;2023-09-18T10:00:32;12.75;;;9.30;;
62788;SDS011;66401;42.016;21.454;2023-09-18T10:03:08;11.38;;;9.18;;
62788;SDS011;66401;42.016;21.454;2023-09-18T10:05:36;11.27;;;8.80;;
62788;SDS011;66401;42.016;21.454;2023-09-18T10:08:06;10.25;;;8.50;;
62788;SDS011;66401;42.016;21.454;2023-09-18T10:10:42;11.70;;;7.93;;
62788;SDS011;66401;42.016;21.454;2023-09-18T10:13:18;9.75;;;8.75;;
62788;SDS011;66401;42.016;21.454;2023-09-18T10:15:50;8.75;;;7.85;;
62788;SDS011;66401;42.016;21.454;2023-09-18T10:18:20;11.40;;;8.55;;
62788;SDS011;66401;42.016;21.454;2023-09-18T10:20:53;10.45;;;9.25;;
62788;SDS011;66401;42.016;21.454;2023-09-18T10:26:32;9.40;;;8.27;;
62788;SDS011;66401;42.016;21.454;2023-09-18T10:29:14;9.35;;;7.95;;
62788;SDS011;66401;42.016;21.454;2023-09-18T10:31:40;10.00;;;8.10;;
62788;SDS011;66401;42.016;21.454;2023-09-18T10:34:09;10.90;;;8.23;;
62788;SDS011;66401;42.016;21.454;2023-09-18T10:36:37;12.93;;;8.65;;
62788;SDS011;66401;42.016;21.454;2023-09-18T10:39:06;9.88;;;7.78;;
62788;SDS011;66401;42.016;21.454;2023-09-18T10:41:38;8.75;;;7.88;;
62788;SDS011;66401;42.016;21.454;2023-09-18T10:44:05;10.80;;;8.43;;
62788;SDS011;66401;42.016;21.454;2023-09-18T10:46:31;10.07;;;6.40;;
62788;SDS011;66401;42.016;21.454;2023-09-18T10:48:58;12.80;;;8.13;;
62788;SDS011;66401;42.016;21.454;2023-09-18T10:51:25;10.10;;;7.95;;
62788;SDS011;66401;42.016;21.454;2023-09-18T10:53:51;9.25;;;7.20;;
62788;SDS011;66401;42.016;21.454;2023-09-18T10:56:19;8.00;;;6.72;;
62788;SDS011;66401;42.016;21.454;2023-09-18T10:58:45;9.80;;;6.85;;
62788;SDS011;66401;42.016;21.454;2023-09-18T11:01:11;9.65;;;7.40;;
62788;SDS011;66401;42.016;21.454;2023-09-18T11:03:38;10.70;;;8.70;;
62788;SDS011;66401;42.016;21.454;2023-09-18T11:06:05;8.05;;;7.30;;
62788;SDS011;66401;42.016;21.454;2023-09-18T11:08:49;8.10;;;7.35;;
62788;SDS011;66401;42.016;21.454;2023-09-18T11:11:17;9.67;;;7.67;;
62788;SDS011;66401;42.016;21.454;2023-09-18T11:13:50;10.53;;;7.63;;
62788;SDS011;66401;42.016;21.454;2023-09-18T11:18:56;10.93;;;8.20;;
62788;SDS011;66401;42.016;21.454;2023-09-18T11:21:33;12.93;;;7.80;;
62788;SDS011;66401;42.016;21.454;2023-09-18T11:26:31;8.60;;;7.80;;
62788;SDS011;66401;42.016;21.454;2023-09-18T11:34:22;9.73;;;7.37;;
62788;SDS011;66401;42.016;21.454;2023-09-18T11:36:51;8.23;;;7.43;;
62788;SDS011;66401;42.016;21.454;2023-09-18T11:39:33;7.80;;;7.07;;
62788;SDS011;66401;42.016;21.454;2023-09-18T11:44:43;7.47;;;6.40;;
62788;SDS011;66401;42.016;21.454;2023-09-18T11:47:12;7.73;;;6.93;;
62788;SDS011;66401;42.016;21.454;2023-09-18T11:49:55;7.27;;;6.53;;
62788;SDS011;66401;42.016;21.454;2023-09-18T11:52:29;6.60;;;5.80;;
62788;SDS011;66401;42.016;21.454;2023-09-18T11:54:57;7.50;;;6.60;;
62788;SDS011;66401;42.016;21.454;2023-09-18T11:57:24;7.07;;;6.43;;
62788;SDS011;66401;42.016;21.454;2023-09-18T11:59:50;6.93;;;6.23;;
62788;SDS011;66401;42.016;21.454;2023-09-18T12:02:26;7.70;;;6.10;;
62788;SDS011;66401;42.016;21.454;2023-09-18T12:05:10;7.07;;;6.30;;
62788;SDS011;66401;42.016;21.454;2023-09-18T12:07:39;8.00;;;6.93;;
62788;SDS011;66401;42.016;21.454;2023-09-18T12:10:08;10.43;;;6.43;;
62788;SDS011;66401;42.016;21.454;2023-09-18T12:12:35;6.80;;;6.13;;
62788;SDS011;66401;42.016;21.454;2023-09-18T12:15:01;6.90;;;6.03;;
62788;SDS011;66401;42.016;21.454;2023-09-18T12:17:26;10.47;;;6.00;;
62788;SDS011;66401;42.016;21.454;2023-09-18T12:19:53;6.67;;;6.07;;
62788;SDS011;66401;42.016;21.454;2023-09-18T12:22:29;9.40;;;6.73;;
62788;SDS011;66401;42.016;21.454;2023-09-18T12:25:09;6.87;;;6.20;;
62788;SDS011;66401;42.016;21.454;2023-09-18T12:27:36;8.63;;;6.50;;
62788;SDS011;66401;42.016;21.454;2023-09-18T12:30:02;8.23;;;6.00;;
62788;SDS011;66401;42.016;21.454;2023-09-18T12:32:32;6.40;;;5.80;;
62788;SDS011;66401;42.016;21.454;2023-09-18T12:35:01;6.60;;;5.83;;
62788;SDS011;66401;42.016;21.454;2023-09-18T12:37:28;6.73;;;5.53;;
62788;SDS011;66401;42.016;21.454;2023-09-18T12:39:53;5.70;;;5.20;;
62788;SDS011;66401;42.016;21.454;2023-09-18T12:42:19;7.00;;;4.90;;
62788;SDS011;66401;42.016;21.454;2023-09-18T12:44:48;5.47;;;5.03;;
62788;SDS011;66401;42.016;21.454;2023-09-18T12:47:14;6.43;;;5.60;;
62788;SDS011;66401;42.016;21.454;2023-09-18T12:49:40;5.00;;;4.60;;
62788;SDS011;66401;42.016;21.454;2023-09-18T12:52:06;7.47;;;5.77;;
62788;SDS011;66401;42.016;21.454;2023-09-18T12:54:44;10.00;;;6.10;;
62788;SDS011;66401;42.016;21.454;2023-09-18T12:57:19;5.73;;;5.23;;
62788;SDS011;66401;42.016;21.454;2023-09-18T12:59:45;7.53;;;5.10;;
62788;SDS011;66401;42.016;21.454;2023-09-18T13:02:15;5.83;;;4.77;;
62788;SDS011;66401;42.016;21.454;2023-09-18T13:04:47;5.70;;;4.97;;
62788;SDS011;66401;42.016;21.454;2023-09-18T13:07:19;4.80;;;4.40;;
62788;SDS011;66401;42.016;21.454;2023-09-18T13:09:59;4.73;;;4.33;;
62788;SDS011;66401;42.016;21.454;2023-09-18T13:12:40;5.10;;;4.13;;
62788;SDS011;66401;42.016;21.454;2023-09-18T13:15:13;4.23;;;3.63;;
62788;SDS011;66401;42.016;21.454;2023-09-18T13:17:42;4.57;;;4.17;;
62788;SDS011;66401;42.016;21.454;2023-09-18T13:20:21;4.23;;;3.87;;
62788;SDS011;66401;42.016;21.454;2023-09-18T13:22:52;5.63;;;4.30;;
62788;SDS011;66401;42.016;21.454;2023-09-18T13:25:28;4.83;;;4.40;;
62788;SDS011;66401;42.016;21.454;2023-09-18T13:27:56;4.90;;;4.50;;
62788;SDS011;66401;42.016;21.454;2023-09-18T13:30:21;4.90;;;4.40;;
62788;SDS011;66401;42.016;21.454;2023-09-18T13:32:48;4.80;;;4.40;;
62788;SDS011;66401;42.016;21.454;2023-09-18T13:35:15;4.63;;;4.03;;
62788;SDS011;66401;42.016;21.454;2023-09-18T13:37:44;4.40;;;4.00;;
62788;SDS011;66401;42.016;21.454;2023-09-18T13:40:10;6.47;;;4.03;;
62788;SDS011;66401;42.016;21.454;2023-09-18T13:42:39;3.93;;;3.60;;
62788;SDS011;66401;42.016;21.454;2023-09-18T13:45:05;4.60;;;4.07;;
62788;SDS011;66401;42.016;21.454;2023-09-18T13:47:33;3.70;;;3.40;;
62788;SDS011;66401;42.016;21.454;2023-09-18T13:50:00;5.00;;;3.90;;
62788;SDS011;66401;42.016;21.454;2023-09-18T13:52:26;3.33;;;3.13;;
62788;SDS011;66401;42.016;21.454;2023-09-18T13:54:52;3.83;;;3.53;;
62788;SDS011;66401;42.016;21.454;2023-09-18T13:57:18;3.67;;;3.37;;
62788;SDS011;66401;42.016;21.454;2023-09-18T13:59:44;3.67;;;3.40;;
62788;SDS011;66401;42.016;21.454;2023-09-18T14:02:11;3.70;;;3.10;;
62788;SDS011;66401;42.016;21.454;2023-09-18T14:04:37;5.43;;;4.07;;
62788;SDS011;66401;42.016;21.454;2023-09-18T14:07:03;4.30;;;3.93;;
62788;SDS011;66401;42.016;21.454;2023-09-18T14:09:32;3.87;;;3.50;;
62788;SDS011;66401;42.016;21.454;2023-09-18T14:11:57;4.70;;;3.67;;
62788;SDS011;66401;42.016;21.454;2023-09-18T14:14:23;5.93;;;4.43;;
62788;SDS011;66401;42.016;21.454;2023-09-18T14:16:49;5.40;;;5.00;;
62788;SDS011;66401;42.016;21.454;2023-09-18T14:19:18;5.17;;;4.40;;
62788;SDS011;66401;42.016;21.454;2023-09-18T14:21:44;4.90;;;4.50;;
62788;SDS011;66401;42.016;21.454;2023-09-18T14:24:10;5.50;;;5.00;;
62788;SDS011;66401;42.016;21.454;2023-09-18T14:26:36;5.37;;;4.80;;
62788;SDS011;66401;42.016;21.454;2023-09-18T14:29:12;5.63;;;4.60;;
62788;SDS011;66401;42.016;21.454;2023-09-18T14:31:39;5.17;;;4.60;;
62788;SDS011;66401;42.016;21.454;2023-09-18T14:34:05;5.53;;;4.50;;
62788;SDS011;66401;42.016;21.454;2023-09-18T14:36:31;4.73;;;4.33;;
62788;SDS011;66401;42.016;21.454;2023-09-18T14:38:59;5.13;;;4.63;;
62788;SDS011;66401;42.016;21.454;2023-09-18T14:41:25;5.43;;;4.93;;
62788;SDS011;66401;42.016;21.454;2023-09-18T14:43:51;5.23;;;4.60;;